Home > Products > Valid Products > TAF

000
FTUS46 KEKA 281929 AAA
TAFCEC
TAF AMD
KCEC 281929Z 2819/2918 16018G28KT 6SM -SHRA BKN025 OVC035
     FM282200 16014G22KT P6SM -SHRA SCT025 BKN050 BKN080
     FM290500 16012KT 5SM -RA BR SCT030 BKN040 OVC070
     FM291700 16014G22KT P6SM -SHRA SCT025 BKN050 BKN080=



000
FTUS46 KEKA 281745
TAFUKI
TAF
KUKI 281745Z 2818/2918 13003KT P6SM SCT015 BKN030 OVC040
     FM282100 14010KT 4SM -RA BR SCT015 OVC025
     FM291000 15008KT 6SM -SHRA BR SCT010 BKN025 OVC050=



000
FTUS46 KEKA 281745
TAFCEC
TAF
KCEC 281745Z 2818/2918 16018G28KT 6SM -SHRA SCT030 BKN060 OVC080
     FM282200 16014G22KT P6SM -SHRA SCT025 BKN050 BKN080
     FM290500 16012KT 5SM -RA BR SCT030 BKN040 OVC070
     FM291700 16014G22KT P6SM -SHRA SCT025 BKN050 BKN080=



000
FTUS46 KEKA 281745
TAFACV
TAF
KACV 281745Z 2818/2918 15013G20KT 6SM -SHRA BR SCT040 BKN050 OVC070
     FM282200 16008KT P6SM -SHRA SCT025 BKN050 BKN080
     FM290800 14012KT 5SM -RA SCT025 BKN035 OVC070=



000
FTUS46 KEKA 281702 AAA
TAFACV
TAF AMD
KACV 281702Z 2817/2912 14012G19KT 6SM -RA BR BKN050 OVC070
     FM281800 17012KT 4SM RA BR OVC030
     FM282000 16005KT 3SM -RA OVC035
     FM290200 17006KT 4SM -RA OVC025=



000
FTUS46 KEKA 281431 CCB
TAFCEC
TAF COR
KCEC 281431Z 2812/2912 16015G22KT 5SM RA BKN040 BKN050 OVC090
     FM281500 14018G28KT 5SM -RA BKN035 OVC050
     FM290000 17012KT P6SM -RA OVC035
     FM290600 16012KT 5SM -RA BR OVC050=



000
FTUS46 KEKA 281401 CCA
TAFCEC
TAF COR
KCEC 281401Z 2812/2912 16015G22KT 6SM RA BKN050 OVC090
     FM281500 14018G28KT 6SM -RA BKN035 OVC050
     FM290000 17012KT P6SM -RA OVC035
     FM290600 16012KT 5SM -RA BR OVC050=



000
FTUS46 KEKA 281358 CCC
TAFACV
TAF COR
KACV 281358Z 2812/2912 16015G20KT P6SM OVC050
     FM281500 17012KT 6SM -RA BR OVC035
     FM281800 17012KT 4SM RA BR OVC030
     FM282000 16005KT 3SM -RA OVC035
     FM290200 17006KT 4SM -RA OVC025=



000
FTUS46 KEKA 281333 CCB
TAFACV
TAF COR
KACV 281333Z 2812/2912 16010KT P6SM OVC060
     FM281500 17012KT 6SM -RA BR OVC035
     FM281800 17012KT 4SM RA BR OVC030
     FM282000 16005KT 3SM -RA OVC035
     FM290200 17006KT 4SM -RA OVC025=



000
FTUS46 KEKA 281158 CCA
TAFACV
TAF COR
KACV 281158Z 2812/2912 16015G22KT P6SM OVC060
     FM281400 17012G18KT 6SM -RA BR OVC035
     FM281600 17012KT 4SM RA BR OVC030
     FM282000 16005KT 3SM -RA OVC035
     FM290200 17006KT 4SM -RA OVC025=



000
FTUS46 KEKA 281131
TAFACV
TAF
KACV 281131Z 2812/2912 18006KT P6SM OVC060
     FM281400 17011KT 6SM -RA BR OVC035
     FM281600 17012KT 4SM RA BR OVC030
     FM282000 16005KT 3SM -RA OVC035
     FM290200 17006KT 4SM -RA OVC025=



000
FTUS46 KEKA 281131
TAFCEC
TAF
KCEC 281131Z 2812/2912 16015G22KT P6SM -RA BKN050 OVC090
     FM281500 14018G28KT 6SM -RA BKN035 OVC050
     FM290000 17012KT P6SM -RA OVC035
     FM290600 16012KT 5SM -RA BR OVC050=



000
FTUS46 KEKA 281131
TAFUKI
TAF
KUKI 281131Z 2812/2912 00000KT P6SM BKN200
     FM281600 15003KT P6SM OVC070
     FM282100 16005KT 4SM -RA BR OVC030
     FM290400 15003KT 4SM -RA BR OVC020
     FM290600 15005KT 3SM -RA BR OVC015=



000
FTUS46 KEKA 281011 AAA
TAFCEC
TAF AMD
KCEC 281011Z 2810/2906 15014KT P6SM BKN050
     FM281200 15016KT P6SM -RA SCT015 OVC025
     FM281500 14018G28KT 6SM -RA BKN035 OVC050
     FM282200 16015KT P6SM -RA OVC035=



000
FTUS46 KEKA 280524
TAFACV
TAF
KACV 280524Z 2806/2906 18004KT P6SM OVC120
     FM281000 15009KT P6SM OVC060
     FM281200 17011KT P6SM -RA OVC025
     FM281500 17012KT 4SM RA BR OVC020
     FM281900 16008KT P6SM -RA OVC035=



000
FTUS46 KEKA 280524
TAFUKI
TAF
KUKI 280524Z 2806/2906 00000KT P6SM BKN200
     FM281500 15003KT P6SM OVC120
     FM281700 15005KT P6SM OVC015
     FM282000 15005KT 3SM -RA BR OVC015=



000
FTUS46 KEKA 280524
TAFCEC
TAF
KCEC 280524Z 2806/2906 15014KT P6SM SCT020 BKN050
     FM281000 15016KT P6SM -RA SCT015 OVC025
     FM281200 14018G28KT 6SM -RA BKN035 OVC050
     FM282200 16015KT P6SM -RA OVC035=



000
FTUS46 KEKA 272324
TAFCEC
TAF
KCEC 272324Z 2800/2824 17015G23KT P6SM VCSH OVC035
     FM280300 16015G25KT 6SM -RA OVC025
     FM281200 16015G25KT 5SM -RA BKN015 OVC025=



000
FTUS46 KEKA 272324
TAFUKI
TAF
KUKI 272324Z 2800/2824 17003KT P6SM OVC200
     FM281500 15003KT P6SM VCSH OVC035=



000
FTUS46 KEKA 272324
TAFACV
TAF
KACV 272324Z 2800/2824 18008KT P6SM OVC120
     FM281200 17011KT 5SM -RA OVC025=



000
FTUS46 KEKA 271735
TAFACV
TAF
KACV 271735Z 2718/2818 18006KT P6SM OVC120
     FM281200 15010KT 6SM -RA OVC025=



000
FTUS46 KEKA 271735
TAFCEC
TAF
KCEC 271735Z 2718/2818 16014KT P6SM SCT020 OVC050
     FM280000 17011KT 5SM -RA BR OVC025
     FM281200 16014KT 5SM -RA BKN015 OVC025=



000
FTUS46 KEKA 271735
TAFUKI
TAF
KUKI 271735Z 2718/2818 17004KT P6SM OVC200
     FM281500 15003KT P6SM VCSH OVC035=



000
FTUS46 KEKA 271135
TAFUKI
TAF
KUKI 271135Z 2712/2812 VRB03KT P6SM BKN200
     FM272100 16009KT P6SM OVC150
     FM280300 14003KT P6SM OVC100=



000
FTUS46 KEKA 271135
TAFCEC
TAF
KCEC 271135Z 2712/2812 16012KT P6SM OVC100
     FM271800 15015KT P6SM -RA SCT020 OVC050
     FM280000 17012KT 3SM -RA BR OVC015
     FM280600 16015KT P6SM -RA SCT015 OVC050
     FM281000 16018KT P6SM -RA BKN015 OVC040=



000
FTUS46 KEKA 271135
TAFACV
TAF
KACV 271135Z 2712/2812 10004KT P6SM OVC100
     FM271600 14006KT P6SM OVC100
     FM272300 16007KT P6SM SCT025 OVC050
     FM280300 15009KT P6SM BKN025 OVC050
     FM281000 15010KT 6SM -RA OVC025=



000
FTUS46 KEKA 270950 AAA
TAFCEC
TAF AMD
KCEC 270950Z 2710/2806 17010KT P6SM OVC150
     FM271200 16012KT P6SM OVC100
     FM271500 16015KT P6SM -RA SCT020 BKN050 OVC100
     FM271800 15015KT 5SM RA BR BKN020 OVC050
     FM280000 17012KT 3SM -RA BR OVC015=



000
FTUS46 KEKA 270526
TAFCEC
TAF
KCEC 270526Z 2706/2806 17010KT P6SM OVC150
     FM271000 16012KT P6SM OVC100
     FM271500 16015KT P6SM -RA SCT020 BKN050 OVC100
     FM271800 15015KT 5SM RA BR BKN020 OVC050
     FM280000 17012KT 3SM -RA BR OVC015=



000
FTUS46 KEKA 270526
TAFUKI
TAF
KUKI 270526Z 2706/2806 VRB03KT P6SM BKN200
     FM272100 16009KT P6SM OVC150=



000
FTUS46 KEKA 270526
TAFACV
TAF
KACV 270526Z 2706/2806 10007KT P6SM OVC150
     FM271300 15009KT P6SM OVC100=



000
FTUS46 KEKA 262333
TAFCEC
TAF
KCEC 262333Z 2700/2724 16009KT P6SM SCT100 BKN200
     FM270200 17012KT P6SM SCT050 BKN100 OVC200
     FM271200 16015KT P6SM -RA SCT020 BKN050 OVC100
     FM271800 15015KT 5SM -RA BR BKN020 OVC050=



000
FTUS46 KEKA 262333
TAFACV
TAF
KACV 262333Z 2700/2724 15006KT P6SM FEW100 FEW200
      TEMPO 2700/2703 6SM HZ
     FM270300 16007KT P6SM FEW050 SCT100 BKN200
     FM271300 15009KT P6SM -RA SCT015 BKN050 OVC100
     FM271900 15010KT 5SM -RA BR FEW015 BKN025 OVC050=



000
FTUS46 KEKA 262333
TAFUKI
TAF
KUKI 262333Z 2700/2724 15005KT P6SM BKN200
     FM271000 VRB03KT P6SM SCT100 BKN200
     FM272300 16009KT P6SM -RA SCT050 BKN090 OVC200=



000
FTUS46 KEKA 261743
TAFACV
TAF
KACV 261743Z 2618/2718 14006KT P6SM FEW100 FEW250
     FM261900 17008KT P6SM FEW100 BKN200
     FM270200 16007KT P6SM SCT015 BKN200
     FM271000 15009KT P6SM SCT015 BKN050 OVC100
     FM271400 15010KT 6SM -RA BR FEW015 BKN025 OVC050=



000
FTUS46 KEKA 261743
TAFCEC
TAF
KCEC 261743Z 2618/2718 16009KT P6SM SCT100 BKN250
     FM270000 17012KT P6SM SCT100 BKN200
     FM270200 17012G17KT P6SM FEW020 BKN100 OVC200
     FM271000 16015KT P6SM SCT020 BKN050 OVC100
     FM271200 15015KT 6SM -RA BR BKN020 OVC050=



000
FTUS46 KEKA 261743
TAFUKI
TAF
KUKI 261743Z 2618/2718 15005KT P6SM SCT250
     FM262200 15006KT P6SM FEW100 SCT250
     FM270000 14004KT P6SM BKN250=



000
FTUS46 KEKA 261142
TAFUKI
TAF
KUKI 261142Z 2612/2712 00000KT 6SM BR FEW002 FEW250
     FM261600 00000KT P6SM SKC
     FM262200 15004KT P6SM SCT250
     FM270000 14004KT P6SM BKN250=



000
FTUS46 KEKA 261142
TAFACV
TAF
KACV 261142Z 2612/2712 10003KT P6SM FEW015 FEW250
     FM261600 13005KT P6SM SCT250
     FM261900 17006KT P6SM BKN200
     FM270200 16007KT P6SM SCT015 BKN200
     FM271000 15009KT P6SM BKN015 OVC100=



000
FTUS46 KEKA 261142
TAFCEC
TAF
KCEC 261142Z 2612/2712 12004KT P6SM SCT012 SCT250
     FM261600 16008KT P6SM SCT100 SCT250
     FM262000 17011KT P6SM SCT100 BKN200
     FM270200 17012G20KT P6SM FEW020 BKN100
     FM271000 16015KT P6SM BKN020 OVC100=



000
FTUS46 KEKA 260804 AAA
TAFCEC
TAF AMD
KCEC 260804Z 2608/2706 10003KT 6SM BR FEW250
      TEMPO 2608/2610 3SM BR SCT002
     FM261200 15006KT 5SM BR SCT012 SCT250
     FM261600 16008KT P6SM SCT100 BKN250
     FM262000 17011KT P6SM SCT100 BKN200
     FM270200 17012G20KT P6SM SCT015 BKN200=



000
FTUS46 KEKA 260534
TAFCEC
TAF
KCEC 260534Z 2606/2706 15003KT 3SM BR FEW250
      TEMPO 2606/2610 1SM BR SCT002
     FM261200 15006KT 5SM BR SCT012 SCT250
     FM261600 16008KT P6SM SCT100 BKN250
     FM262000 17011KT P6SM SCT100 BKN200
     FM270200 17012G20KT P6SM SCT015 BKN200=



000
FTUS46 KEKA 260534
TAFACV
TAF
KACV 260534Z 2606/2706 11003KT 6SM BR SCT250
     FM260800 11004KT 5SM BR FEW250
     FM261600 13005KT P6SM SCT015 SCT250
     FM261900 17006KT P6SM SCT020 BKN250
     FM270200 16007KT P6SM SCT015 BKN200=



000
FTUS46 KEKA 260534
TAFUKI
TAF
KUKI 260534Z 2606/2706 00000KT P6SM SCT250
     FM261400 00000KT 6SM BR FEW003 SCT250
     FM261700 00000KT P6SM SKC
     FM262200 15004KT P6SM SCT250
     FM270000 14004KT P6SM BKN250=



000
FTUS46 KEKA 252329
TAFCEC
TAF
KCEC 252329Z 2600/2624 35005KT 6SM HZ SCT250
     FM260200 05003KT 6SM BR SCT250
     FM260800 14004KT 5SM BR FEW015 SCT250
     FM261600 16008KT P6SM SCT200
     FM262000 17012KT P6SM BKN200=



000
FTUS46 KEKA 252329
TAFACV
TAF
KACV 252329Z 2600/2624 30005KT P6SM FEW250
     FM260200 00000KT 6SM BR FEW250
     FM260800 13004KT 5SM BR FEW250
     FM261600 14005KT P6SM SCT250
     FM261900 18007KT P6SM SCT200=



000
FTUS46 KEKA 252329
TAFUKI
TAF
KUKI 252329Z 2600/2624 00000KT P6SM FEW250
     FM261300 00000KT 6SM BR FEW003
     FM261800 14003KT P6SM SKC=



000
FTUS46 KEKA 252206 AAA
TAFCEC
TAF AMD
KCEC 252206Z 2522/2618 VRB04KT 6SM HZ SCT250
     FM260800 14004KT 5SM BR FEW015 SCT250
     FM261600 16008KT 6SM BR SCT200=



    US Dept of Commerce
    National Oceanic and Atmospheric Administration
    National Weather Service
    1325 East West Highway
    Silver Spring, MD 20910
    Page Author: NWS Internet Services Team
Disclaimer
Information Quality
Credits
Glossary
Privacy Policy
Freedom of Information Act (FOIA)
About Us
Career Opportunities